Time;durP1;ratioP1;P1;durP2;ratioP2;P2;SDS_P1;SDS_P2;PMS_P1;PMS_P2;Temp;Humidity;BMP_temperature;BMP_pressure;BME280_temperature;BME280_humidity;BME280_pressure;Samples;Min_cycle;Max_cycle;Signal;HPM_P1;HPM_P2
2022/04/08 00:01:46;;;;;;;4.10;1.00;;;19.60;99.90;;;;;;5025233;28;20083;-68
2022/04/08 00:04:18;;;;;;;3.03;1.42;;;19.60;99.90;;;;;;5028413;28;20597;-66
2022/04/08 00:06:49;;;;;;;6.07;1.58;;;19.50;99.90;;;;;;5026854;28;20030;-67
2022/04/08 00:09:16;;;;;;;2.30;0.80;;;19.50;99.90;;;;;;5027340;28;20037;-68
2022/04/08 00:11:43;;;;;;;3.60;0.90;;;19.40;99.90;;;;;;5027527;28;20116;-67
2022/04/08 00:14:10;;;;;;;4.75;1.33;;;19.40;99.90;;;;;;5027054;28;20045;-67
2022/04/08 00:16:38;;;;;;;2.97;1.10;;;19.30;99.90;;;;;;5026420;28;20105;-68
2022/04/08 00:19:06;;;;;;;2.75;1.10;;;19.40;99.90;;;;;;5025712;28;20021;-68
2022/04/08 00:21:33;;;;;;;4.25;2.60;;;19.40;99.90;;;;;;5027589;28;20495;-66
2022/04/08 00:24:00;;;;;;;5.60;1.10;;;19.40;99.90;;;;;;5028072;28;20211;-65
2022/04/08 00:26:27;;;;;;;3.97;1.30;;;19.60;99.90;;;;;;5027131;28;20476;-65
2022/04/08 00:28:54;;;;;;;2.13;0.82;;;19.70;99.90;;;;;;5027585;28;20029;-67
2022/04/08 00:31:22;;;;;;;4.50;1.45;;;19.80;99.90;;;;;;5025542;28;20108;-68
2022/04/08 00:33:49;;;;;;;5.10;3.40;;;20.00;99.90;;;;;;5027550;28;20026;-66
2022/04/08 00:36:16;;;;;;;4.13;1.45;;;20.00;99.90;;;;;;5026507;28;20025;-67
2022/04/08 00:38:43;;;;;;;4.95;1.25;;;20.10;99.90;;;;;;5025979;28;20049;-69
2022/04/08 00:41:10;;;;;;;2.50;1.15;;;20.30;99.90;;;;;;5027697;28;20113;-66
2022/04/08 00:43:39;;;;;;;2.97;1.00;;;20.30;99.90;;;;;;5026073;28;20029;-66
2022/04/08 00:46:09;;;;;;;2.88;1.10;;;20.50;99.90;;;;;;5025824;28;20033;-68
2022/04/08 00:48:37;;;;;;;5.05;1.40;;;20.60;99.90;;;;;;5025495;28;20029;-66
2022/04/08 00:51:06;;;;;;;5.10;1.80;;;20.80;99.90;;;;;;5027201;28;20409;-64
2022/04/08 00:53:37;;;;;;;4.05;1.50;;;20.90;99.90;;;;;;5025603;28;20140;-65
2022/04/08 00:56:04;;;;;;;6.43;1.80;;;21.00;99.90;;;;;;5023684;28;20025;-65
2022/04/08 00:58:35;;;;;;;5.53;1.90;;;20.90;99.90;;;;;;5022748;28;20030;-69
2022/04/08 01:01:02;;;;;;;4.05;1.73;;;21.00;99.90;;;;;;5026068;28;20094;-66
2022/04/08 01:03:29;;;;;;;4.93;1.20;;;21.10;99.90;;;;;;5025830;28;20061;-68
2022/04/08 01:05:56;;;;;;;6.38;1.30;;;21.30;99.90;;;;;;5025888;28;20034;-67
2022/04/08 01:08:23;;;;;;;3.25;1.00;;;21.50;99.90;;;;;;5026676;28;20021;-65
2022/04/08 01:10:52;;;;;;;2.05;0.90;;;21.60;99.90;;;;;;5026495;28;20026;-66
2022/04/08 01:13:19;;;;;;;3.97;1.17;;;21.70;99.90;;;;;;5027371;28;20552;-69
2022/04/08 01:15:47;;;;;;;6.60;1.65;;;21.70;99.90;;;;;;5025255;28;20589;-69
2022/04/08 01:18:14;;;;;;;4.25;1.30;;;21.70;99.90;;;;;;5025212;28;20025;-68
2022/04/08 01:20:41;;;;;;;5.40;1.75;;;21.60;99.90;;;;;;5023664;28;20022;-67
2022/04/08 01:23:08;;;;;;;5.10;1.50;;;21.40;99.90;;;;;;4328988;28;10000731;-70
2022/04/08 01:25:35;;;;;;;7.25;2.20;;;21.30;99.90;;;;;;5022723;28;20038;-67
2022/04/08 01:28:02;;;;;;;4.53;1.75;;;21.20;99.90;;;;;;5017819;28;20531;-69
2022/04/08 01:30:29;;;;;;;6.45;4.13;;;21.20;99.90;;;;;;5018943;28;20021;-67
2022/04/08 01:32:56;;;;;;;7.95;2.85;;;21.20;99.90;;;;;;5021779;28;20030;-70
2022/04/08 01:35:23;;;;;;;4.55;1.80;;;21.10;99.90;;;;;;5017897;28;20025;-70
2022/04/08 01:37:50;;;;;;;4.85;1.42;;;21.00;99.90;;;;;;5018489;28;20041;-70
2022/04/08 01:40:17;;;;;;;3.58;1.20;;;20.90;99.90;;;;;;5019323;28;20017;-69
2022/04/08 01:42:45;;;;;;;5.18;1.10;;;20.90;99.90;;;;;;5019533;28;20083;-69
2022/04/08 01:45:13;;;;;;;5.55;1.00;;;21.00;99.90;;;;;;5019032;28;20106;-70
2022/04/08 01:47:40;;;;;;;2.80;0.80;;;21.20;99.90;;;;;;5017506;28;20691;-65
2022/04/08 01:50:08;;;;;;;2.80;1.15;;;21.50;99.90;;;;;;5021821;28;20013;-68
2022/04/08 01:52:35;;;;;;;3.38;1.20;;;21.70;99.90;;;;;;5032432;28;20017;-68
2022/04/08 01:55:05;;;;;;;2.83;1.17;;;21.90;99.90;;;;;;5028036;28;20022;-66
2022/04/08 01:57:33;;;;;;;2.05;0.88;;;22.20;99.90;;;;;;5025401;28;20017;-66
2022/04/08 02:00:00;;;;;;;3.25;0.88;;;22.30;99.90;;;;;;5025295;28;20025;-66
2022/04/08 02:02:27;;;;;;;2.17;0.95;;;22.70;99.90;;;;;;5029671;28;20021;-64
2022/04/08 02:04:54;;;;;;;2.72;0.47;;;23.00;99.90;;;;;;5026177;28;20435;-68
2022/04/08 02:07:21;;;;;;;3.55;0.80;;;23.20;99.90;;;;;;5021495;28;20120;-66
2022/04/08 02:09:48;;;;;;;3.22;0.88;;;23.20;99.90;;;;;;5028815;28;20076;-67
2022/04/08 02:12:15;;;;;;;3.08;0.77;;;23.40;99.90;;;;;;5029326;28;20021;-67
2022/04/08 02:14:42;;;;;;;2.15;0.60;;;23.60;99.90;;;;;;5029633;28;20100;-66
2022/04/08 02:17:09;;;;;;;3.25;0.70;;;23.80;99.90;;;;;;5024443;28;20113;-68
2022/04/08 02:19:37;;;;;;;3.67;1.10;;;24.00;99.90;;;;;;5028459;28;20493;-69
2022/04/08 02:22:05;;;;;;;3.58;0.80;;;24.20;99.90;;;;;;5024833;28;20053;-69
2022/04/08 02:24:33;;;;;;;2.05;0.90;;;24.40;99.90;;;;;;5032070;28;20021;-65
2022/04/08 02:27:01;;;;;;;2.38;0.85;;;24.40;99.90;;;;;;5027754;28;20049;-64
2022/04/08 02:29:28;;;;;;;2.55;0.88;;;24.60;99.90;;;;;;5033823;28;20026;-65
2022/04/08 02:31:56;;;;;;;4.63;1.33;;;25.30;99.90;;;;;;5028141;28;20116;-69
2022/04/08 02:34:23;;;;;;;4.22;1.02;;;25.90;99.90;;;;;;5018068;28;20033;-66
2022/04/08 02:36:50;;;;;;;4.45;1.63;;;26.40;99.90;;;;;;5024357;28;20484;-68
2022/04/08 02:39:17;;;;;;;3.90;2.13;;;26.50;99.90;;;;;;5020386;28;20056;-64
2022/04/08 02:41:44;;;;;;;4.18;1.20;;;26.20;99.90;;;;;;5022393;28;20060;-64
2022/04/08 02:44:11;;;;;;;4.05;1.65;;;26.30;99.90;;;;;;5019097;28;20539;-67
2022/04/08 02:46:38;;;;;;;5.30;1.40;;;25.80;99.90;;;;;;5021422;28;20121;-65
2022/04/08 02:49:05;;;;;;;4.10;1.20;;;25.50;99.90;;;;;;5019987;28;20071;-64
2022/04/08 02:51:32;;;;;;;3.88;1.42;;;25.00;99.90;;;;;;5026461;28;20021;-67
2022/04/08 02:53:59;;;;;;;8.50;1.55;;;24.30;99.90;;;;;;5020582;28;20030;-68
2022/04/08 02:56:26;;;;;;;3.40;1.17;;;24.10;99.90;;;;;;5021689;28;20487;-65
2022/04/08 02:58:54;;;;;;;10.85;6.72;;;23.90;99.90;;;;;;5023153;28;20053;-67
2022/04/08 03:01:21;;;;;;;4.40;1.08;;;23.60;99.90;;;;;;5030571;28;20037;-69
2022/04/08 03:03:48;;;;;;;7.00;1.83;;;23.30;99.90;;;;;;5028362;28;20763;-69
2022/04/08 03:06:15;;;;;;;4.88;1.35;;;23.20;99.90;;;;;;5027900;28;20033;-70
2022/04/08 03:08:42;;;;;;;2.53;0.90;;;23.20;99.90;;;;;;5029461;28;20070;-69
2022/04/08 03:11:09;;;;;;;5.22;1.65;;;23.80;99.90;;;;;;5027745;28;20028;-67
2022/04/08 03:13:36;;;;;;;4.88;1.13;;;24.60;99.90;;;;;;5030532;28;20101;-67
2022/04/08 03:16:04;;;;;;;5.47;1.20;;;24.80;99.90;;;;;;5028992;28;20033;-68
2022/04/08 03:18:30;;;;;;;4.70;1.35;;;24.70;99.90;;;;;;5031411;28;20087;-65
2022/04/08 03:21:00;;;;;;;3.95;0.90;;;24.60;99.90;;;;;;5033688;28;20025;-65
2022/04/08 03:23:27;;;;;;;4.50;1.10;;;24.90;99.90;;;;;;5031184;28;20085;-66
2022/04/08 03:25:54;;;;;;;5.55;1.25;;;25.20;99.90;;;;;;5029999;28;20116;-66
2022/04/08 03:28:21;;;;;;;5.93;1.05;;;25.20;99.90;;;;;;5030020;28;20033;-66
2022/04/08 03:30:48;;;;;;;2.58;0.77;;;24.80;99.90;;;;;;5038712;28;20025;-66
2022/04/08 03:33:15;;;;;;;3.55;1.00;;;24.20;99.90;;;;;;5031324;28;20029;-68
2022/04/08 03:35:42;;;;;;;1.48;0.68;;;23.30;99.90;;;;;;5029010;28;20215;-69
2022/04/08 03:38:09;;;;;;;4.32;0.70;;;22.60;99.90;;;;;;5028203;28;20523;-68
2022/04/08 03:40:36;;;;;;;2.33;0.60;;;22.10;99.90;;;;;;5036090;28;20055;-65
2022/04/08 03:43:04;;;;;;;2.38;0.60;;;21.70;99.90;;;;;;5031155;28;20025;-67
2022/04/08 03:45:31;;;;;;;5.40;0.75;;;21.50;99.90;;;;;;5027445;28;20032;-65
2022/04/08 03:47:58;;;;;;;3.00;0.80;;;21.70;99.90;;;;;;5019714;28;20030;-68
2022/04/08 03:50:25;;;;;;;2.67;0.88;;;22.10;99.90;;;;;;5031335;28;20025;-65
2022/04/08 03:52:52;;;;;;;2.72;0.75;;;22.90;99.90;;;;;;5027684;28;20022;-65
2022/04/08 03:55:19;;;;;;;2.22;0.70;;;23.70;99.90;;;;;;5029590;28;20022;-66
2022/04/08 03:57:47;;;;;;;2.90;0.95;;;24.20;99.90;;;;;;5020697;28;20613;-68
2022/04/08 04:00:14;;;;;;;3.40;0.95;;;24.80;99.90;;;;;;5034131;28;20029;-65
2022/04/08 04:02:41;;;;;;;2.08;0.80;;;25.30;99.90;;;;;;5034893;28;20020;-67
2022/04/08 04:05:09;;;;;;;1.65;0.80;;;25.30;99.90;;;;;;5029094;28;20033;-65
2022/04/08 04:07:36;;;;;;;5.68;2.10;;;25.60;99.90;;;;;;5026511;28;20071;-67
2022/04/08 04:10:04;;;;;;;5.57;3.92;;;25.30;99.90;;;;;;5031621;28;20084;-64
2022/04/08 04:12:31;;;;;;;4.45;1.77;;;24.50;99.90;;;;;;5027083;28;20025;-65
2022/04/08 04:14:58;;;;;;;4.80;0.98;;;24.00;99.90;;;;;;5028684;28;20140;-67
2022/04/08 04:17:27;;;;;;;3.08;0.95;;;23.60;99.90;;;;;;5026507;28;20155;-65
2022/04/08 04:19:54;;;;;;;3.63;1.15;;;23.20;99.90;;;;;;5027417;28;20680;-68
2022/04/08 04:22:21;;;;;;;4.72;1.05;;;22.80;99.90;;;;;;5027660;28;20025;-65
2022/04/08 04:24:48;;;;;;;4.82;1.38;;;22.60;99.90;;;;;;5030006;28;20037;-68
2022/04/08 04:27:15;;;;;;;5.75;0.93;;;22.50;99.90;;;;;;5027669;28;20550;-65
2022/04/08 04:29:42;;;;;;;4.70;1.20;;;22.50;99.90;;;;;;5033917;28;20026;-65
2022/04/08 04:32:09;;;;;;;4.68;1.30;;;22.40;99.90;;;;;;5027993;28;20104;-65
2022/04/08 04:34:38;;;;;;;3.85;1.25;;;22.30;99.90;;;;;;5026372;28;20028;-65
2022/04/08 04:37:08;;;;;;;2.47;1.05;;;22.00;99.90;;;;;;5027659;28;20053;-65
2022/04/08 04:39:36;;;;;;;3.25;1.67;;;22.00;99.90;;;;;;5020807;28;20084;-65
2022/04/08 04:42:03;;;;;;;2.60;1.13;;;22.20;99.90;;;;;;5031365;28;20594;-66
2022/04/08 04:44:30;;;;;;;7.25;1.73;;;22.80;99.90;;;;;;5027062;28;20033;-65
2022/04/08 04:46:58;;;;;;;7.28;1.38;;;23.70;99.90;;;;;;5024465;28;20088;-67
2022/04/08 04:49:25;;;;;;;6.05;1.23;;;23.90;99.90;;;;;;5029633;28;20238;-66
2022/04/08 04:51:52;;;;;;;6.93;1.90;;;23.80;99.90;;;;;;5029405;28;20030;-66
2022/04/08 04:54:19;;;;;;;6.45;1.58;;;23.60;99.90;;;;;;5028294;28;20067;-65
2022/04/08 04:56:46;;;;;;;4.45;1.33;;;23.20;99.90;;;;;;5024258;28;20037;-71
2022/04/08 04:59:13;;;;;;;3.90;1.25;;;23.20;99.90;;;;;;5023627;28;20773;-66
2022/04/08 05:01:40;;;;;;;4.28;1.20;;;23.30;99.90;;;;;;5018583;28;20052;-71
2022/04/08 05:04:07;;;;;;;4.18;1.17;;;23.30;99.90;;;;;;5021674;28;20068;-70
2022/04/08 05:06:34;;;;;;;3.17;0.98;;;23.50;99.90;;;;;;5027697;28;20075;-70
2022/04/08 05:09:05;;;;;;;4.55;0.95;;;23.80;99.90;;;;;;5023430;28;20401;-70
2022/04/08 05:11:36;;;;;;;4.88;1.17;;;23.80;99.90;;;;;;5022131;28;20029;-67
2022/04/08 05:14:03;;;;;;;5.97;1.33;;;23.70;99.90;;;;;;5025284;28;20041;-68
2022/04/08 05:16:30;;;;;;;4.65;2.10;;;23.60;99.90;;;;;;5028942;28;20036;-64
2022/04/08 05:18:58;;;;;;;4.75;2.00;;;23.50;99.90;;;;;;5027911;28;20478;-66
2022/04/08 05:21:25;;;;;;;3.63;1.00;;;23.30;99.90;;;;;;5021042;28;20031;-66
2022/04/08 05:23:52;;;;;;;5.03;1.23;;;23.30;99.90;;;;;;5020370;28;20417;-65
2022/04/08 05:26:19;;;;;;;4.15;1.15;;;23.20;99.90;;;;;;5025161;28;20041;-65
2022/04/08 05:28:46;;;;;;;2.58;0.95;;;23.10;99.90;;;;;;5023817;28;20024;-71
2022/04/08 05:31:13;;;;;;;4.88;1.25;;;23.00;99.90;;;;;;5026927;28;20032;-65
2022/04/08 05:33:40;;;;;;;4.45;1.50;;;22.80;99.90;;;;;;5021721;28;20025;-67
2022/04/08 05:36:07;;;;;;;4.32;1.30;;;22.90;99.90;;;;;;5024136;28;20132;-70
2022/04/08 05:38:34;;;;;;;3.30;0.98;;;23.00;99.90;;;;;;5025978;28;20504;-65
2022/04/08 05:41:01;;;;;;;3.25;1.27;;;23.20;99.90;;;;;;5028971;28;20346;-67
2022/04/08 05:43:28;;;;;;;4.63;2.22;;;23.20;99.90;;;;;;5026213;28;20029;-66
2022/04/08 05:45:55;;;;;;;3.53;1.00;;;23.30;99.90;;;;;;5025216;28;20036;-66
2022/04/08 05:48:23;;;;;;;5.97;4.57;;;23.40;99.90;;;;;;5031363;28;20029;-68
2022/04/08 05:50:50;;;;;;;3.80;0.90;;;23.30;99.90;;;;;;5024830;28;20067;-67
2022/04/08 05:53:17;;;;;;;4.20;1.88;;;23.20;99.90;;;;;;5022897;28;20029;-66
2022/04/08 05:55:45;;;;;;;5.03;2.55;;;23.30;99.90;;;;;;5022656;28;20026;-68
2022/04/08 05:58:12;;;;;;;4.03;1.65;;;23.40;99.90;;;;;;5019710;28;20021;-64
2022/04/08 06:00:39;;;;;;;4.13;1.52;;;23.40;99.90;;;;;;5019072;28;20022;-65
2022/04/08 06:03:06;;;;;;;3.38;1.55;;;23.30;99.90;;;;;;5019856;28;20021;-64
2022/04/08 06:05:33;;;;;;;6.25;1.60;;;23.30;99.90;;;;;;5016580;28;20458;-64
2022/04/08 06:08:01;;;;;;;4.43;0.90;;;23.10;99.90;;;;;;5020251;28;20033;-63
2022/04/08 06:10:28;;;;;;;4.13;0.80;;;22.80;99.90;;;;;;5027440;28;20048;-63
2022/04/08 06:12:56;;;;;;;3.10;1.02;;;22.60;99.90;;;;;;5019003;28;20101;-65
2022/04/08 06:15:24;;;;;;;4.22;1.30;;;22.40;99.90;;;;;;5011334;28;20527;-66
2022/04/08 06:17:51;;;;;;;3.45;1.13;;;22.20;99.90;;;;;;5012840;28;20566;-65
2022/04/08 06:20:20;;;;;;;3.70;1.00;;;22.10;99.90;;;;;;5022696;28;20053;-65
2022/04/08 06:22:48;;;;;;;3.00;0.95;;;22.00;99.90;;;;;;5017723;28;20025;-65
2022/04/08 06:25:25;;;;;;;2.10;0.80;;;21.80;99.90;;;;;;5012900;28;20380;-65
2022/04/08 06:28:03;;;;;;;5.72;0.77;;;21.80;99.90;;;;;;5014714;28;20021;-65
2022/04/08 06:30:35;;;;;;;3.85;2.25;;;21.70;99.90;;;;;;5017440;28;20056;-65
2022/04/08 06:33:04;;;;;;;2.15;1.08;;;21.70;99.90;;;;;;5012977;28;20280;-65
2022/04/08 06:35:32;;;;;;;2.85;1.20;;;21.50;99.90;;;;;;5012163;28;20030;-64
2022/04/08 06:38:03;;;;;;;2.08;1.10;;;21.40;99.90;;;;;;5012492;28;20432;-65
2022/04/08 06:40:40;;;;;;;3.03;1.23;;;21.40;99.90;;;;;;5013276;28;20590;-64
2022/04/08 06:43:08;;;;;;;6.43;3.85;;;21.30;99.90;;;;;;5009703;28;20831;-65
2022/04/08 06:45:36;;;;;;;8.82;6.03;;;21.20;99.90;;;;;;5015782;28;20503;-65
2022/04/08 06:48:03;;;;;;;9.35;2.13;;;21.10;99.90;;;;;;5009592;28;20415;-64
2022/04/08 06:50:30;;;;;;;4.18;1.60;;;21.00;99.90;;;;;;5019175;28;20028;-65
2022/04/08 06:53:00;;;;;;;3.60;1.55;;;21.00;99.90;;;;;;5010862;28;20030;-64
2022/04/08 06:55:31;;;;;;;3.90;1.30;;;20.90;99.90;;;;;;5017981;28;20100;-63
2022/04/08 06:57:59;;;;;;;6.97;1.92;;;20.80;99.90;;;;;;5014473;28;20037;-66
2022/04/08 07:00:26;;;;;;;5.30;1.63;;;20.70;99.90;;;;;;5023242;28;20813;-64
2022/04/08 07:02:54;;;;;;;3.80;1.48;;;20.60;99.90;;;;;;5016146;28;20571;-63
2022/04/08 07:05:21;;;;;;;4.38;1.73;;;20.60;99.90;;;;;;5022416;28;20044;-63
2022/04/08 07:07:48;;;;;;;3.20;1.38;;;20.50;99.90;;;;;;5024125;28;20025;-63
2022/04/08 07:10:16;;;;;;;4.15;1.70;;;20.50;99.90;;;;;;5021090;28;20116;-64
2022/04/08 07:12:42;;;;;;;5.88;1.40;;;20.40;99.90;;;;;;5032642;28;20494;-65
2022/04/08 07:15:10;;;;;;;6.75;1.73;;;20.40;99.90;;;;;;5021696;28;20025;-64
2022/04/08 07:17:38;;;;;;;8.73;1.58;;;20.30;99.90;;;;;;5022239;28;20036;-66
2022/04/08 07:20:06;;;;;;;3.75;1.35;;;20.30;99.90;;;;;;5026742;28;20155;-63
2022/04/08 07:22:34;;;;;;;5.32;1.60;;;20.20;99.90;;;;;;5019142;28;20344;-64
2022/04/08 07:25:01;;;;;;;6.88;1.92;;;20.20;99.90;;;;;;5025332;28;20678;-64
2022/04/08 07:27:28;;;;;;;6.10;1.88;;;20.10;99.90;;;;;;5022625;28;20385;-66
2022/04/08 07:29:55;;;;;;;4.82;1.52;;;19.90;99.90;;;;;;5023350;28;20021;-66
2022/04/08 07:32:22;;;;;;;3.75;1.60;;;19.80;99.90;;;;;;5030763;28;20016;-65
2022/04/08 07:34:50;;;;;;;7.80;1.77;;;19.60;99.90;;;;;;5026019;28;20024;-67
2022/04/08 07:37:37;;;;;;;5.20;1.83;;;19.60;99.90;;;;;;5023836;28;20107;-69
2022/04/08 07:40:12;;;;;;;9.15;1.80;;;19.60;99.90;;;;;;5023010;28;20492;-63
2022/04/08 07:42:39;;;;;;;7.72;1.75;;;19.50;99.90;;;;;;5021016;28;20029;-64
2022/04/08 07:45:08;;;;;;;7.45;2.28;;;19.40;99.90;;;;;;5023462;28;20033;-64
2022/04/08 07:47:35;;;;;;;7.30;1.45;;;19.30;99.90;;;;;;5021394;28;20112;-69
2022/04/08 07:50:05;;;;;;;6.38;1.52;;;19.10;99.90;;;;;;5011783;28;20041;-67
2022/04/08 07:52:33;;;;;;;5.40;1.30;;;19.10;99.90;;;;;;5024001;28;20036;-65
2022/04/08 07:55:00;;;;;;;5.18;1.70;;;19.00;99.90;;;;;;5023334;28;20026;-67
2022/04/08 07:57:27;;;;;;;4.50;1.30;;;19.00;99.90;;;;;;5026969;28;20051;-70
2022/04/08 07:59:54;;;;;;;5.28;2.10;;;19.00;99.90;;;;;;5019228;28;20029;-71
2022/04/08 08:02:21;;;;;;;3.78;1.50;;;19.00;99.90;;;;;;5031251;28;20076;-67
2022/04/08 08:04:49;;;;;;;5.40;1.90;;;18.90;99.90;;;;;;5041494;28;20039;-67
2022/04/08 08:07:16;;;;;;;10.93;2.20;;;18.90;99.90;;;;;;5032060;28;20032;-68
2022/04/08 08:09:43;;;;;;;7.95;1.65;;;18.90;99.90;;;;;;5023841;28;20036;-71
2022/04/08 08:12:10;;;;;;;5.63;1.88;;;19.00;99.90;;;;;;5024831;28;20105;-67
2022/04/08 08:14:37;;;;;;;7.22;1.90;;;19.00;99.90;;;;;;5029814;28;20045;-67
2022/04/08 08:17:05;;;;;;;8.85;2.05;;;18.90;99.90;;;;;;5027769;28;20033;-67
2022/04/08 08:19:32;;;;;;;7.43;1.90;;;18.90;99.90;;;;;;5023875;28;20026;-64
2022/04/08 08:21:59;;;;;;;6.00;1.83;;;18.90;99.90;;;;;;5027836;28;20030;-69
2022/04/08 08:24:26;;;;;;;6.13;2.20;;;19.00;99.90;;;;;;5034264;28;20043;-68
2022/04/08 08:26:53;;;;;;;4.40;2.10;;;18.90;99.90;;;;;;5029045;28;20084;-66
2022/04/08 08:29:20;;;;;;;7.88;2.45;;;18.90;99.90;;;;;;5027621;28;20479;-66
2022/04/08 08:31:47;;;;;;;11.73;2.50;;;18.90;99.90;;;;;;5027615;28;20489;-66
2022/04/08 08:34:14;;;;;;;6.35;2.08;;;18.90;99.90;;;;;;5031352;28;20021;-67
2022/04/08 08:36:41;;;;;;;5.68;1.98;;;18.80;99.90;;;;;;5030504;28;20095;-67
2022/04/08 08:39:08;;;;;;;8.35;2.20;;;18.80;99.90;;;;;;5027058;28;20034;-65
2022/04/08 08:41:37;;;;;;;5.55;2.00;;;18.80;99.90;;;;;;5033428;28;20036;-66
2022/04/08 08:44:04;;;;;;;7.30;2.28;;;18.80;99.90;;;;;;5031273;28;20033;-65
2022/04/08 08:46:35;;;;;;;5.25;2.08;;;18.80;99.90;;;;;;5029322;28;20525;-67
2022/04/08 08:49:04;;;;;;;7.07;2.25;;;18.70;99.90;;;;;;5022498;28;20037;-66
2022/04/08 08:51:37;;;;;;;4.20;2.35;;;18.60;99.90;;;;;;5024477;28;20017;-67
2022/04/08 08:54:04;;;;;;;9.50;2.38;;;18.60;99.90;;;;;;5027419;28;20052;-67
2022/04/08 08:56:32;;;;;;;7.78;2.05;;;18.50;99.90;;;;;;5029300;28;20038;-67
2022/04/08 08:58:59;;;;;;;6.68;2.22;;;18.50;99.90;;;;;;5026609;28;20060;-66
2022/04/08 09:01:26;;;;;;;7.25;2.63;;;18.40;99.90;;;;;;5021136;28;20068;-66
2022/04/08 09:03:52;;;;;;;9.63;2.38;;;18.40;99.90;;;;;;5027894;28;20049;-66
2022/04/08 09:06:20;;;;;;;7.93;2.88;;;18.40;99.90;;;;;;5031569;28;20080;-67
2022/04/08 09:08:59;;;;;;;6.57;2.60;;;18.30;99.90;;;;;;5025317;28;20029;-67
2022/04/08 09:11:27;;;;;;;6.57;2.42;;;18.30;99.90;;;;;;5024473;28;20053;-64
2022/04/08 09:14:02;;;;;;;9.75;3.45;;;18.20;99.90;;;;;;5023019;28;20017;-66
2022/04/08 09:16:35;;;;;;;9.48;4.07;;;18.20;99.90;;;;;;5023147;28;20029;-64
2022/04/08 09:19:17;;;;;;;12.80;7.35;;;18.20;99.90;;;;;;5021695;28;20041;-66
2022/04/08 09:21:54;;;;;;;8.25;3.38;;;18.20;99.90;;;;;;5022884;28;20160;-66
2022/04/08 09:24:27;;;;;;;5.95;3.20;;;18.30;99.90;;;;;;5020290;28;20033;-66
2022/04/08 09:26:55;;;;;;;10.00;2.72;;;18.30;99.90;;;;;;5015232;28;20034;-66
2022/04/08 09:29:23;;;;;;;14.20;3.83;;;18.40;99.90;;;;;;5019661;28;20132;-66
2022/04/08 09:31:51;;;;;;;9.85;2.92;;;18.50;99.90;;;;;;5020254;28;20021;-66
2022/04/08 09:34:21;;;;;;;7.20;2.50;;;18.50;99.90;;;;;;5021271;28;20032;-65
2022/04/08 09:36:48;;;;;;;7.57;2.30;;;18.50;99.90;;;;;;5019095;28;20045;-65
2022/04/08 09:39:16;;;;;;;8.65;2.38;;;18.50;99.90;;;;;;5020887;28;20030;-65
2022/04/08 09:41:45;;;;;;;7.63;2.13;;;18.50;99.90;;;;;;5021692;28;20593;-67
2022/04/08 09:44:14;;;;;;;9.40;2.25;;;18.40;99.90;;;;;;5020882;28;20040;-67
2022/04/08 09:46:41;;;;;;;8.55;2.28;;;18.30;99.90;;;;;;5020419;28;20029;-66
2022/04/08 09:49:08;;;;;;;11.10;2.35;;;18.30;99.90;;;;;;5028227;28;20033;-68
2022/04/08 09:51:41;;;;;;;5.40;2.38;;;18.30;99.90;;;;;;5022067;28;20075;-69
2022/04/08 09:54:10;;;;;;;11.80;2.78;;;18.30;99.90;;;;;;5017866;28;20036;-65
2022/04/08 09:56:39;;;;;;;6.55;2.30;;;18.10;99.90;;;;;;5016470;28;20404;-66
2022/04/08 09:59:16;;;;;;;8.80;2.47;;;18.20;99.90;;;;;;5014646;28;20033;-65
2022/04/08 10:01:47;;;;;;;9.43;3.13;;;18.10;99.90;;;;;;5018072;28;20144;-66
2022/04/08 10:04:14;;;;;;;7.32;2.15;;;18.10;99.90;;;;;;5020684;28;20121;-66
2022/04/08 10:06:43;;;;;;;25.58;15.73;;;18.10;99.90;;;;;;5019164;28;20039;-67
2022/04/08 10:09:11;;;;;;;12.50;3.30;;;18.10;99.90;;;;;;5022837;28;20056;-67
2022/04/08 10:11:57;;;;;;;6.43;2.28;;;18.20;99.90;;;;;;5024286;28;20030;-68
2022/04/08 10:14:29;;;;;;;7.60;2.50;;;18.40;99.90;;;;;;5021069;28;20032;-68
2022/04/08 10:16:59;;;;;;;8.98;2.47;;;18.40;99.90;;;;;;5019813;28;20044;-68
2022/04/08 10:19:28;;;;;;;13.43;6.45;;;18.50;99.90;;;;;;5020486;28;20022;-65
2022/04/08 10:21:56;;;;;;;9.63;3.33;;;18.50;99.90;;;;;;5019244;28;20021;-67
2022/04/08 10:24:24;;;;;;;10.40;4.05;;;18.50;99.90;;;;;;5018834;28;20107;-67
2022/04/08 10:27:13;;;;;;;11.57;2.40;;;18.40;99.90;;;;;;5017713;28;20034;-66
2022/04/08 10:29:40;;;;;;;10.15;2.60;;;18.50;99.90;;;;;;5018792;28;20505;-65
2022/04/08 10:32:14;;;;;;;9.13;2.70;;;18.40;99.90;;;;;;5021833;28;20502;-68
2022/04/08 10:34:41;;;;;;;12.10;7.57;;;18.40;99.90;;;;;;5021117;28;20033;-65
2022/04/08 10:37:26;;;;;;;22.80;15.75;;;18.40;99.90;;;;;;5074335;22;20064;-64
2022/04/08 10:40:04;;;;;;;9.88;5.03;;;18.40;99.90;;;;;;5036663;28;20025;-65
2022/04/08 10:42:34;;;;;;;7.85;4.03;;;18.40;99.90;;;;;;5041723;28;20044;-66
2022/04/08 10:45:14;;;;;;;7.97;2.38;;;18.40;99.90;;;;;;5040441;28;20037;-66
2022/04/08 10:47:49;;;;;;;13.20;2.58;;;18.40;99.90;;;;;;5046093;28;20448;-65
2022/04/08 10:50:30;;;;;;;13.50;3.08;;;18.40;99.90;;;;;;5049336;28;20017;-66
2022/04/08 10:53:05;;;;;;;12.97;2.90;;;18.40;99.90;;;;;;5044318;28;20404;-66
2022/04/08 10:55:33;;;;;;;8.07;2.28;;;18.50;99.90;;;;;;5044801;28;20021;-65
2022/04/08 10:58:00;;;;;;;10.38;4.35;;;18.40;99.90;;;;;;5050915;28;20037;-66
2022/04/08 11:00:38;;;;;;;8.65;3.10;;;18.30;99.90;;;;;;5048683;28;20378;-65
2022/04/08 11:03:06;;;;;;;11.15;3.50;;;18.30;99.90;;;;;;5042995;28;20557;-65
2022/04/08 11:05:38;;;;;;;5.57;1.95;;;18.30;99.90;;;;;;5043727;28;20430;-65
2022/04/08 11:08:06;;;;;;;9.18;2.35;;;18.20;99.90;;;;;;5046997;28;20343;-65
2022/04/08 11:10:33;;;;;;;12.52;2.53;;;18.20;99.90;;;;;;5045487;28;20029;-64
2022/04/08 11:13:00;;;;;;;6.95;1.92;;;18.10;99.90;;;;;;5047115;28;20029;-64
2022/04/08 11:15:29;;;;;;;6.22;1.88;;;18.10;99.90;;;;;;5045206;28;20108;-64
2022/04/08 11:18:00;;;;;;;5.68;2.40;;;18.10;99.90;;;;;;5047908;28;20479;-64
2022/04/08 11:20:28;;;;;;;12.18;2.55;;;18.00;99.90;;;;;;5046185;28;20388;-65
2022/04/08 11:22:56;;;;;;;5.28;1.63;;;18.10;99.90;;;;;;5044263;28;20044;-64
2022/04/08 11:25:25;;;;;;;10.25;2.17;;;18.20;99.90;;;;;;5043463;28;20032;-64
2022/04/08 11:28:10;;;;;;;11.02;3.05;;;18.30;99.90;;;;;;5047242;28;20039;-64
2022/04/08 11:30:40;;;;;;;9.70;2.00;;;18.30;99.90;;;;;;5041328;28;20057;-65
2022/04/08 11:33:20;;;;;;;10.20;1.80;;;18.30;99.90;;;;;;5044711;28;20056;-65
2022/04/08 11:35:48;;;;;;;10.20;2.08;;;18.30;99.90;;;;;;5044127;28;20025;-65
2022/04/08 11:38:16;;;;;;;7.32;2.45;;;18.10;99.90;;;;;;5047247;28;20057;-65
2022/04/08 11:40:46;;;;;;;11.32;2.80;;;18.10;99.90;;;;;;5049509;28;20040;-65
2022/04/08 11:43:15;;;;;;;9.15;2.50;;;18.00;99.90;;;;;;5042217;28;20710;-64
2022/04/08 11:45:43;;;;;;;8.68;2.38;;;17.90;99.90;;;;;;5047597;28;20039;-65
2022/04/08 11:48:18;;;;;;;9.55;2.20;;;17.80;99.90;;;;;;5047399;28;20040;-64
2022/04/08 11:50:47;;;;;;;8.48;2.05;;;17.80;99.90;;;;;;5048957;28;20040;-64
2022/04/08 11:53:22;;;;;;;7.80;1.80;;;17.70;99.90;;;;;;5040625;28;20029;-66
2022/04/08 11:56:04;;;;;;;17.27;3.22;;;17.60;99.90;;;;;;5046867;28;20498;-66
2022/04/08 11:58:31;;;;;;;9.60;2.05;;;17.50;99.90;;;;;;5046071;28;20021;-64
2022/04/08 12:01:01;;;;;;;12.25;2.75;;;17.50;99.90;;;;;;5049295;28;20028;-66
2022/04/08 12:03:29;;;;;;;4.05;1.55;;;17.60;99.90;;;;;;5048862;28;20025;-65
2022/04/08 12:05:58;;;;;;;10.73;2.50;;;17.50;99.90;;;;;;5044118;28;20057;-64
2022/04/08 12:08:25;;;;;;;9.73;2.50;;;17.70;99.90;;;;;;5046188;28;20095;-64
2022/04/08 12:10:59;;;;;;;19.13;3.15;;;17.70;99.90;;;;;;5045133;28;20020;-66
2022/04/08 12:13:29;;;;;;;6.63;1.90;;;17.80;99.90;;;;;;5047789;28;20024;-65
2022/04/08 12:15:58;;;;;;;7.75;1.80;;;17.80;99.90;;;;;;5058233;28;20033;-64
2022/04/08 12:18:27;;;;;;;6.40;2.00;;;17.80;99.90;;;;;;5047546;28;20275;-65
2022/04/08 12:21:05;;;;;;;8.35;2.15;;;17.90;99.90;;;;;;5045656;28;20121;-65
2022/04/08 12:23:33;;;;;;;13.23;2.35;;;17.90;99.90;;;;;;5046671;28;20025;-65
2022/04/08 12:26:05;;;;;;;11.30;2.28;;;17.90;99.90;;;;;;5048831;28;20017;-66
2022/04/08 12:28:35;;;;;;;8.02;2.42;;;18.00;99.90;;;;;;5047292;28;20112;-65
2022/04/08 12:31:31;;;;;;;7.45;2.17;;;18.00;99.90;;;;;;5048155;28;20025;-67
2022/04/08 12:33:58;;;;;;;7.95;2.15;;;18.10;99.90;;;;;;5013937;28;20097;-67
2022/04/08 12:36:24;;;;;;;3.38;1.58;;;18.10;99.90;;;;;;5007818;28;20084;-67
2022/04/08 12:38:51;;;;;;;9.23;1.90;;;18.00;99.90;;;;;;5011479;28;20429;-67
2022/04/08 12:41:18;;;;;;;8.95;2.58;;;18.00;99.90;;;;;;5006584;28;20033;-65
2022/04/08 12:43:45;;;;;;;6.65;1.70;;;18.00;99.90;;;;;;5012000;28;20060;-66
2022/04/08 12:46:13;;;;;;;3.25;1.42;;;18.00;99.90;;;;;;5006163;28;20479;-64
2022/04/08 12:48:40;;;;;;;5.93;1.83;;;18.00;99.90;;;;;;5012868;28;20025;-64
2022/04/08 12:51:07;;;;;;;8.25;2.03;;;18.00;99.90;;;;;;5006622;28;20040;-65
2022/04/08 12:53:35;;;;;;;9.43;2.28;;;18.00;99.90;;;;;;5019527;28;20032;-66